Time;durP1;ratioP1;P1;durP2;ratioP2;P2;SDS_P1;SDS_P2;PMS_P1;PMS_P2;Temp;Humidity;BMP_temperature;BMP_pressure;BME280_temperature;BME280_humidity;BME280_pressure;Samples;Min_cycle;Max_cycle;Signal;HPM_P1;HPM_P2
2022/04/19 00:00:46;;;;;;;23.83;7.73;;;2.90;99.90;;;;;;4341078;28;657576;-68
2022/04/19 00:03:34;;;;;;;22.93;7.67;;;2.90;99.90;;;;;;4359438;28;657864;-68
2022/04/19 00:06:21;;;;;;;21.60;7.50;;;2.90;99.90;;;;;;4340143;28;657713;-68
2022/04/19 00:09:08;;;;;;;27.70;9.40;;;2.90;97.80;;;;;;4357534;28;657521;-68
2022/04/19 00:11:57;;;;;;;26.20;8.93;;;3.00;95.40;;;;;;4340748;28;657713;-68
2022/04/19 00:14:47;;;;;;;24.23;8.73;;;3.00;93.70;;;;;;4357800;28;657582;-68
2022/04/19 00:17:34;;;;;;;23.77;7.90;;;3.00;99.90;;;;;;4336941;28;658118;-69
2022/04/19 00:20:22;;;;;;;30.17;8.97;;;2.90;94.70;;;;;;4341066;28;657500;-68
2022/04/19 00:23:12;;;;;;;27.30;8.83;;;3.00;95.70;;;;;;4357816;28;657608;-68
2022/04/19 00:26:00;;;;;;;22.00;7.70;;;2.90;97.30;;;;;;4336060;28;658560;-67
2022/04/19 00:28:48;;;;;;;18.20;7.37;;;2.90;99.20;;;;;;4358966;28;658266;-69
2022/04/19 00:31:37;;;;;;;23.00;7.30;;;2.90;99.90;;;;;;4342342;28;658973;-68
2022/04/19 00:34:24;;;;;;;26.43;8.87;;;2.90;99.90;;;;;;4358158;28;658867;-68
2022/04/19 00:37:11;;;;;;;22.38;7.85;;;2.70;99.90;;;;;;4341177;28;657726;-68
2022/04/19 00:40:00;;;;;;;24.73;7.23;;;2.70;99.90;;;;;;4360878;28;657812;-68
2022/04/19 00:42:49;;;;;;;14.80;5.73;;;2.70;99.90;;;;;;4336644;28;658758;-68
2022/04/19 00:45:36;;;;;;;14.47;5.90;;;2.80;99.90;;;;;;4337941;28;658229;-68
2022/04/19 00:48:25;;;;;;;18.30;5.95;;;2.90;99.90;;;;;;4361068;28;658924;-68
2022/04/19 00:51:12;;;;;;;20.07;6.90;;;3.10;93.90;;;;;;4339376;28;659320;-68
2022/04/19 00:54:00;;;;;;;22.77;7.73;;;3.20;91.40;;;;;;4366203;28;658405;-68
2022/04/19 00:56:47;;;;;;;16.33;6.00;;;3.00;99.90;;;;;;4339135;28;658981;-68
2022/04/19 00:59:34;;;;;;;16.58;6.30;;;3.00;99.90;;;;;;4366740;28;658291;-68
2022/04/19 01:02:22;;;;;;;14.43;6.20;;;3.20;95.80;;;;;;4345235;28;657840;-68
2022/04/19 01:05:11;;;;;;;14.60;5.40;;;3.30;91.60;;;;;;4363090;28;657567;-68
2022/04/19 01:07:58;;;;;;;13.67;4.87;;;3.40;96.50;;;;;;4334921;28;658173;-68
2022/04/19 01:10:45;;;;;;;12.38;3.80;;;3.40;97.10;;;;;;4340219;28;657687;-68
2022/04/19 01:13:32;;;;;;;10.03;3.80;;;3.80;84.90;;;;;;4358538;28;658897;-68
2022/04/19 01:16:19;;;;;;;10.70;3.77;;;3.70;95.90;;;;;;4357845;28;657644;-68
2022/04/19 01:19:06;;;;;;;9.80;4.00;;;3.70;90.70;;;;;;4334932;28;657317;-68
2022/04/19 01:21:55;;;;;;;8.20;3.23;;;3.70;94.10;;;;;;4359878;28;656374;-68
2022/04/19 01:24:43;;;;;;;8.53;3.20;;;3.90;82.20;;;;;;4334840;28;657142;-68
2022/04/19 01:27:30;;;;;;;8.33;3.30;;;3.80;96.60;;;;;;4341172;28;656181;-67
2022/04/19 01:30:18;;;;;;;7.90;3.40;;;3.70;90.00;;;;;;4360419;28;657508;-68
2022/04/19 01:33:06;;;;;;;9.97;4.10;;;3.60;99.90;;;;;;4349149;28;657003;-68
2022/04/19 01:35:53;;;;;;;11.60;3.83;;;3.60;99.90;;;;;;4361387;28;657353;-68
2022/04/19 01:38:42;;;;;;;8.37;2.80;;;3.50;99.00;;;;;;4341211;28;657699;-68
2022/04/19 01:41:29;;;;;;;7.93;4.05;;;3.60;95.80;;;;;;4358156;28;656484;-68
2022/04/19 01:44:17;;;;;;;8.07;3.30;;;3.40;99.90;;;;;;4341592;28;656638;-68
2022/04/19 01:47:05;;;;;;;6.80;3.00;;;3.40;99.90;;;;;;4359239;28;657053;-68
2022/04/19 01:49:53;;;;;;;6.37;2.80;;;3.40;99.90;;;;;;4340901;28;657332;-68
2022/04/19 01:52:41;;;;;;;6.80;3.15;;;3.40;99.90;;;;;;4345524;28;657005;-68
2022/04/19 01:55:29;;;;;;;10.37;2.57;;;3.40;99.90;;;;;;4362413;28;656745;-69
2022/04/19 01:58:17;;;;;;;13.53;5.23;;;3.30;99.90;;;;;;4338379;28;658092;-68
2022/04/19 02:01:04;;;;;;;15.13;5.10;;;3.70;92.60;;;;;;4362214;28;658177;-68
2022/04/19 02:03:52;;;;;;;9.83;3.63;;;3.70;90.80;;;;;;4339553;28;657905;-68
2022/04/19 02:06:40;;;;;;;21.33;8.33;;;3.70;99.90;;;;;;4357953;28;657186;-68
2022/04/19 02:09:27;;;;;;;30.40;10.63;;;3.70;95.40;;;;;;4333157;28;658895;-68
2022/04/19 02:12:16;;;;;;;28.90;10.47;;;3.70;96.50;;;;;;4355086;28;658695;-69
2022/04/19 02:15:03;;;;;;;31.67;12.13;;;3.60;97.50;;;;;;4338835;28;659889;-68
2022/04/19 02:17:51;;;;;;;31.43;13.33;;;3.60;97.30;;;;;;4337897;28;658596;-67
2022/04/19 02:20:38;;;;;;;31.03;12.77;;;3.60;94.50;;;;;;4354499;28;659182;-68
2022/04/19 02:23:26;;;;;;;32.30;13.23;;;3.70;92.90;;;;;;4337734;28;658810;-68
2022/04/19 02:26:13;;;;;;;37.10;14.13;;;3.60;94.90;;;;;;4359999;28;659549;-69
2022/04/19 02:29:02;;;;;;;40.93;14.40;;;3.50;96.00;;;;;;4336535;28;659114;-68
2022/04/19 02:31:49;;;;;;;36.90;14.90;;;3.50;99.40;;;;;;4356346;28;658768;-68
2022/04/19 02:34:37;;;;;;;33.53;12.83;;;3.40;99.90;;;;;;4339695;28;659551;-68
2022/04/19 02:37:24;;;;;;;33.97;13.93;;;3.30;99.90;;;;;;4361643;28;658511;-68
2022/04/19 02:40:12;;;;;;;36.50;15.10;;;3.30;99.50;;;;;;4335758;28;658458;-68
2022/04/19 02:42:59;;;;;;;34.13;14.20;;;3.40;93.80;;;;;;4356819;28;659099;-68
2022/04/19 02:45:48;;;;;;;39.47;16.43;;;3.40;99.90;;;;;;4341291;28;659805;-68
2022/04/19 02:48:35;;;;;;;30.13;11.88;;;3.40;99.00;;;;;;4338805;28;658573;-68
2022/04/19 02:51:23;;;;;;;42.43;16.90;;;3.40;99.90;;;;;;4359465;28;660419;-68
2022/04/19 02:54:10;;;;;;;44.30;15.47;;;3.40;93.30;;;;;;4347656;28;658931;-68
2022/04/19 02:56:58;;;;;;;40.97;17.43;;;3.60;96.00;;;;;;4357064;28;660564;-68
2022/04/19 02:59:45;;;;;;;39.50;16.50;;;3.60;93.60;;;;;;4341950;28;659365;-68
2022/04/19 03:02:34;;;;;;;37.00;14.40;;;3.70;90.60;;;;;;4357101;28;659826;-68
2022/04/19 03:05:22;;;;;;;34.90;13.23;;;3.70;99.90;;;;;;4333407;28;658622;-68
2022/04/19 03:08:09;;;;;;;30.37;13.13;;;3.60;98.70;;;;;;4361502;28;658476;-68
2022/04/19 03:10:58;;;;;;;28.33;12.53;;;3.50;99.90;;;;;;4337983;28;659151;-68
2022/04/19 03:13:46;;;;;;;31.87;12.77;;;3.50;99.90;;;;;;4341384;28;659144;-68
2022/04/19 03:16:33;;;;;;;28.93;11.50;;;3.50;99.90;;;;;;4361494;28;659039;-69
2022/04/19 03:19:23;;;;;;;30.20;12.30;;;3.40;99.90;;;;;;4340708;28;659121;-68
2022/04/19 03:22:10;;;;;;;19.70;7.80;;;3.40;99.90;;;;;;4342042;28;659387;-68
2022/04/19 03:28:03;;;;;;;33.07;13.80;;;3.50;99.90;;;;;;4335356;28;659199;-68
2022/04/19 03:30:51;;;;;;;31.63;12.37;;;3.40;99.90;;;;;;4347821;28;658883;-68
2022/04/19 03:33:39;;;;;;;29.10;11.23;;;3.40;99.90;;;;;;4358661;28;660068;-68
2022/04/19 03:36:28;;;;;;;32.03;11.30;;;3.50;96.20;;;;;;4340596;28;659820;-68
2022/04/19 03:39:15;;;;;;;33.80;12.87;;;3.50;97.00;;;;;;4351168;28;658650;-68
2022/04/19 03:42:03;;;;;;;33.93;12.43;;;3.50;99.90;;;;;;4357178;28;660029;-68
2022/04/19 03:44:50;;;;;;;30.77;12.10;;;3.50;99.90;;;;;;4340248;28;658586;-68
2022/04/19 03:47:38;;;;;;;31.37;13.00;;;3.40;99.90;;;;;;4358052;28;661906;-68
2022/04/19 03:50:25;;;;;;;30.55;12.48;;;3.30;99.90;;;;;;4345711;28;659168;-68
2022/04/19 03:53:14;;;;;;;31.37;12.63;;;3.20;99.90;;;;;;4359323;28;660039;-68
2022/04/19 03:56:03;;;;;;;27.37;12.00;;;3.10;99.90;;;;;;4334971;28;658467;-68
2022/04/19 03:58:51;;;;;;;28.20;11.37;;;3.20;99.90;;;;;;4336318;28;661151;-68
2022/04/19 04:01:38;;;;;;;24.17;11.00;;;3.10;99.90;;;;;;4355866;28;660089;-68
2022/04/19 04:04:30;;;;;;;30.87;12.90;;;3.10;99.90;;;;;;4338893;28;659404;-68
2022/04/19 04:07:17;;;;;;;24.87;12.30;;;3.00;99.90;;;;;;4338910;28;659128;-68
2022/04/19 04:10:07;;;;;;;26.83;12.50;;;3.00;99.90;;;;;;4356031;28;658825;-67
2022/04/19 04:12:55;;;;;;;30.73;13.03;;;3.10;99.90;;;;;;4358372;28;659277;-67
2022/04/19 04:15:42;;;;;;;30.93;11.97;;;2.90;99.90;;;;;;4333418;28;660598;-68
2022/04/19 04:18:31;;;;;;;30.30;12.90;;;3.00;99.90;;;;;;4357786;28;658340;-68
2022/04/19 04:21:18;;;;;;;31.23;12.37;;;3.00;99.90;;;;;;4335373;28;659120;-68
2022/04/19 04:24:06;;;;;;;30.73;12.23;;;3.10;99.90;;;;;;4339241;28;658545;-68
2022/04/19 04:26:55;;;;;;;30.30;14.03;;;3.10;99.90;;;;;;4357909;28;660072;-68
2022/04/19 04:29:42;;;;;;;34.87;15.50;;;3.10;99.90;;;;;;4341402;28;659417;-68
2022/04/19 04:32:30;;;;;;;35.23;13.67;;;3.20;99.90;;;;;;4359188;28;658153;-68
2022/04/19 04:35:17;;;;;;;34.57;14.60;;;3.30;99.90;;;;;;4348400;28;660150;-68
2022/04/19 04:38:05;;;;;;;33.77;13.80;;;3.30;99.90;;;;;;4361153;28;659139;-68
2022/04/19 04:40:52;;;;;;;28.40;13.53;;;3.20;99.90;;;;;;4332417;28;660128;-68
2022/04/19 04:43:41;;;;;;;34.63;13.38;;;3.30;99.90;;;;;;4355724;28;659447;-68
2022/04/19 04:49:40;;;;;;;30.77;13.57;;;3.30;99.90;;;;;;4335195;28;659099;-68
2022/04/19 04:52:27;;;;;;;35.03;14.13;;;3.40;99.90;;;;;;4312935;28;659875;-68
2022/04/19 04:55:14;;;;;;;32.47;13.87;;;3.50;99.90;;;;;;4356327;28;659413;-68
2022/04/19 04:58:02;;;;;;;34.37;13.10;;;3.50;99.90;;;;;;4338441;28;659069;-68
2022/04/19 05:00:51;;;;;;;29.63;13.37;;;3.60;99.90;;;;;;4356031;28;658633;-68
2022/04/19 05:03:38;;;;;;;29.77;12.03;;;3.60;99.90;;;;;;4335102;28;659806;-68
2022/04/19 05:06:26;;;;;;;27.93;11.23;;;3.70;99.90;;;;;;4338784;28;659692;-68
2022/04/19 05:09:13;;;;;;;28.17;12.00;;;3.80;99.90;;;;;;4359628;28;659324;-68
2022/04/19 05:12:00;;;;;;;26.53;12.43;;;3.90;99.90;;;;;;4338341;28;659342;-68
2022/04/19 05:14:48;;;;;;;26.97;12.17;;;3.90;99.90;;;;;;4360580;28;658084;-68
2022/04/19 05:17:37;;;;;;;28.23;12.23;;;4.10;99.90;;;;;;4341725;28;659478;-68
2022/04/19 05:20:24;;;;;;;28.87;12.13;;;4.10;99.90;;;;;;4358879;28;659083;-68
2022/04/19 05:23:11;;;;;;;30.63;12.93;;;4.20;99.90;;;;;;4335362;28;658334;-68
2022/04/19 05:25:59;;;;;;;27.03;12.03;;;4.20;99.90;;;;;;4357715;28;658720;-68
2022/04/19 05:28:46;;;;;;;30.30;13.70;;;4.30;99.90;;;;;;4338137;28;659027;-68
2022/04/19 05:31:33;;;;;;;36.43;14.43;;;4.30;99.90;;;;;;4361542;28;659967;-68
2022/04/19 05:34:22;;;;;;;33.23;14.77;;;4.50;99.90;;;;;;4340049;28;658835;-67
2022/04/19 05:37:10;;;;;;;34.97;15.77;;;4.60;99.90;;;;;;4356472;28;658673;-68
2022/04/19 05:39:57;;;;;;;34.90;15.07;;;4.60;99.90;;;;;;4339032;28;659741;-68
2022/04/19 05:42:44;;;;;;;32.93;14.77;;;4.60;99.90;;;;;;4355795;28;659317;-68
2022/04/19 05:45:32;;;;;;;31.77;13.97;;;4.70;99.90;;;;;;4334041;28;658677;-68
2022/04/19 05:48:19;;;;;;;33.43;13.67;;;4.70;99.90;;;;;;4360618;28;658716;-68
2022/04/19 05:51:08;;;;;;;30.57;13.83;;;4.80;99.90;;;;;;4334499;28;658448;-67
2022/04/19 05:53:55;;;;;;;32.97;14.63;;;4.80;99.90;;;;;;4339861;28;658705;-68
2022/04/19 05:56:43;;;;;;;33.53;15.40;;;4.90;99.90;;;;;;4359755;28;659487;-68
2022/04/19 05:59:30;;;;;;;30.63;14.63;;;5.00;99.90;;;;;;4347199;28;658553;-68
2022/04/19 06:05:22;;;;;;;33.90;14.23;;;5.00;99.70;;;;;;4335333;28;658728;-68
2022/04/19 06:08:12;;;;;;;33.03;14.90;;;5.20;99.90;;;;;;4354366;28;658480;-68
2022/04/19 06:10:59;;;;;;;30.80;14.47;;;5.20;95.50;;;;;;4362736;28;659604;-68
2022/04/19 06:13:46;;;;;;;32.03;14.20;;;5.40;95.70;;;;;;4340644;28;659269;-68
2022/04/19 06:16:34;;;;;;;36.20;15.63;;;5.40;95.80;;;;;;4360813;28;659523;-68
2022/04/19 06:19:22;;;;;;;33.50;14.70;;;5.50;96.70;;;;;;4341601;28;658469;-67
2022/04/19 06:22:10;;;;;;;33.27;15.13;;;5.30;99.50;;;;;;4360993;28;659195;-68
2022/04/19 06:24:58;;;;;;;34.27;15.30;;;5.30;96.70;;;;;;4340453;28;659846;-68
2022/04/19 06:27:46;;;;;;;31.77;15.03;;;5.40;93.20;;;;;;4340126;28;659211;-68
2022/04/19 06:30:33;;;;;;;32.97;14.90;;;5.30;89.30;;;;;;4354814;28;658901;-67
2022/04/19 06:33:20;;;;;;;33.47;14.23;;;5.40;91.70;;;;;;4341009;28;658699;-67
2022/04/19 06:36:09;;;;;;;31.00;14.80;;;5.40;87.00;;;;;;4359886;28;660688;-68
2022/04/19 06:38:56;;;;;;;30.23;14.00;;;5.40;88.10;;;;;;4341326;28;658887;-67
2022/04/19 06:41:45;;;;;;;30.27;14.13;;;5.60;88.30;;;;;;4359936;28;659633;-67
2022/04/19 06:44:32;;;;;;;29.27;13.33;;;5.90;90.80;;;;;;4334510;28;659197;-68
2022/04/19 06:47:19;;;;;;;30.93;14.10;;;6.00;87.40;;;;;;4356419;28;659526;-68
2022/04/19 06:50:08;;;;;;;28.03;14.43;;;6.00;84.20;;;;;;4342213;28;659987;-68
2022/04/19 06:52:55;;;;;;;26.87;13.10;;;6.00;81.20;;;;;;4352627;28;658849;-68
2022/04/19 06:55:43;;;;;;;28.60;12.90;;;6.00;85.60;;;;;;4347299;28;660817;-68
2022/04/19 06:58:32;;;;;;;25.87;11.50;;;5.70;79.50;;;;;;4341975;28;658788;-68
2022/04/19 07:01:23;;;;;;;25.43;13.03;;;5.60;77.90;;;;;;4353256;28;659089;-68
2022/04/19 07:04:16;;;;;;;21.77;11.37;;;5.90;80.90;;;;;;4335524;28;658675;-68
2022/04/19 07:07:04;;;;;;;30.77;15.17;;;6.10;78.70;;;;;;4334756;28;658934;-68
2022/04/19 07:09:51;;;;;;;23.73;12.87;;;6.50;83.80;;;;;;4342521;28;661172;-68
2022/04/19 07:12:39;;;;;;;23.87;10.80;;;6.80;74.80;;;;;;4360535;28;658709;-67
2022/04/19 07:15:28;;;;;;;23.73;10.93;;;6.70;71.60;;;;;;4338855;28;658455;-68
2022/04/19 07:18:17;;;;;;;22.57;11.60;;;6.20;74.60;;;;;;4337545;28;659054;-68
2022/04/19 07:27:14;;;;;;;22.70;10.37;;;6.40;73.30;;;;;;4333789;28;659168;-68
2022/04/19 07:30:02;;;;;;;17.43;10.17;;;6.80;71.70;;;;;;4335829;28;658805;-68
2022/04/19 07:32:51;;;;;;;19.70;10.10;;;6.80;71.80;;;;;;4357667;28;659824;-68
2022/04/19 07:35:38;;;;;;;22.70;10.40;;;7.30;69.50;;;;;;4336133;28;658866;-68
2022/04/19 07:38:25;;;;;;;20.13;10.60;;;8.10;65.00;;;;;;4334751;28;659192;-68
2022/04/19 07:41:13;;;;;;;16.53;9.23;;;8.40;68.00;;;;;;4355407;28;660191;-69
2022/04/19 07:44:01;;;;;;;19.87;10.00;;;8.20;66.40;;;;;;4340571;28;658116;-68
2022/04/19 07:46:50;;;;;;;21.77;10.73;;;8.30;66.20;;;;;;4360887;28;659374;-68
2022/04/19 07:49:39;;;;;;;23.70;10.00;;;8.80;66.00;;;;;;4334335;28;660496;-68
2022/04/19 07:52:26;;;;;;;20.93;10.50;;;8.90;62.20;;;;;;4336154;28;658821;-68
2022/04/19 07:55:13;;;;;;;17.63;7.03;;;8.70;66.10;;;;;;4360010;28;659559;-68
2022/04/19 07:58:01;;;;;;;17.83;8.70;;;8.30;62.60;;;;;;4336808;28;656920;-68
2022/04/19 08:00:48;;;;;;;14.53;7.53;;;8.40;59.10;;;;;;4355087;28;657618;-68
2022/04/19 08:03:35;;;;;;;16.00;9.07;;;8.20;61.20;;;;;;4342197;28;657845;-68
2022/04/19 08:06:24;;;;;;;19.57;8.60;;;7.90;61.20;;;;;;4356219;28;659090;-68
2022/04/19 08:09:12;;;;;;;14.73;7.93;;;7.70;63.50;;;;;;4336531;28;658943;-68
2022/04/19 08:11:59;;;;;;;17.67;8.53;;;8.30;63.50;;;;;;4362686;28;657953;-68
2022/04/19 08:14:46;;;;;;;19.43;8.43;;;8.90;62.70;;;;;;4338238;28;657710;-68
2022/04/19 08:17:34;;;;;;;15.77;8.10;;;8.20;58.40;;;;;;4359961;28;657533;-68
2022/04/19 08:20:21;;;;;;;15.37;7.37;;;8.40;61.30;;;;;;4338202;28;658013;-68
2022/04/19 08:23:10;;;;;;;15.60;7.60;;;8.20;60.50;;;;;;4358457;28;658603;-68
2022/04/19 08:25:57;;;;;;;15.90;7.73;;;8.20;62.10;;;;;;4337703;28;657573;-69
2022/04/19 08:28:45;;;;;;;14.47;7.17;;;8.60;62.60;;;;;;4358474;28;657506;-68
2022/04/19 08:31:32;;;;;;;12.80;7.30;;;8.40;59.50;;;;;;4335989;28;658671;-68
2022/04/19 08:34:19;;;;;;;13.50;7.00;;;7.90;58.80;;;;;;4356507;28;657988;-68
2022/04/19 08:37:31;;;;;;;17.00;7.73;;;8.10;62.10;;;;;;4335987;28;658343;-68
2022/04/19 08:40:20;;;;;;;12.70;7.30;;;8.40;61.50;;;;;;4333187;28;658133;-69
2022/04/19 08:43:07;;;;;;;14.37;7.70;;;8.30;59.70;;;;;;4339709;28;657839;-68
2022/04/19 08:45:55;;;;;;;16.57;7.80;;;8.40;59.50;;;;;;4352582;28;657614;-68
2022/04/19 08:48:43;;;;;;;15.23;7.77;;;8.10;59.50;;;;;;4362002;28;658192;-68
2022/04/19 08:51:31;;;;;;;13.67;8.23;;;8.30;58.90;;;;;;4332214;28;657536;-69
2022/04/19 08:57:30;;;;;;;14.00;8.27;;;8.00;58.40;;;;;;4331213;28;658872;-68
2022/04/19 09:00:22;;;;;;;17.58;9.02;;;8.10;61.20;;;;;;4332572;28;657907;-68
2022/04/19 09:03:09;;;;;;;16.10;8.33;;;8.40;61.10;;;;;;4333368;28;657785;-68
2022/04/19 09:06:12;;;;;;;14.77;8.07;;;8.00;60.40;;;;;;4339238;28;658156;-68
2022/04/19 09:09:10;;;;;;;17.80;8.57;;;7.90;64.00;;;;;;4332159;28;659208;-69
2022/04/19 09:12:07;;;;;;;14.43;8.57;;;7.90;61.10;;;;;;4313585;28;658461;-68
2022/04/19 09:14:58;;;;;;;16.00;8.60;;;8.40;62.00;;;;;;4334117;28;658070;-69
2022/04/19 09:17:48;;;;;;;19.17;9.03;;;8.40;59.20;;;;;;4315910;28;658683;-68
2022/04/19 09:20:36;;;;;;;21.17;8.97;;;8.80;60.00;;;;;;4337561;28;657331;-68
2022/04/19 09:23:23;;;;;;;19.03;9.83;;;8.80;59.40;;;;;;4359587;28;658423;-68
2022/04/19 09:26:11;;;;;;;22.27;9.47;;;8.80;63.10;;;;;;4337129;28;657506;-69
2022/04/19 09:29:17;;;;;;;18.43;8.63;;;9.00;61.40;;;;;;4357887;28;658710;-68
2022/04/19 09:32:12;;;;;;;17.23;9.50;;;8.90;59.50;;;;;;4330900;28;657485;-69
2022/04/19 09:35:15;;;;;;;13.30;7.93;;;9.20;63.00;;;;;;4335082;28;657735;-68
2022/04/19 09:38:02;;;;;;;15.80;8.77;;;9.00;61.30;;;;;;4338613;28;658413;-68
2022/04/19 09:40:49;;;;;;;16.83;9.37;;;9.10;64.40;;;;;;4359017;28;657743;-68
2022/04/19 09:46:46;;;;;;;18.63;9.90;;;10.20;58.40;;;;;;4336000;28;659188;-68
2022/04/19 09:49:45;;;;;;;18.80;9.33;;;9.70;56.80;;;;;;4335814;28;659956;-68
2022/04/19 09:52:48;;;;;;;17.63;9.03;;;9.70;56.90;;;;;;4318641;28;658577;-68
2022/04/19 09:55:35;;;;;;;18.67;9.47;;;9.60;57.50;;;;;;4317634;28;657933;-68
2022/04/19 09:58:23;;;;;;;16.20;9.37;;;9.90;62.60;;;;;;4352691;28;658642;-68
2022/04/19 10:08:10;;;;;;;19.07;9.37;;;10.50;63.50;;;;;;4339152;28;657274;-69
2022/04/19 10:10:29;;;;;;;24.77;9.97;;;11.20;56.20;;;;;;4324650;28;659434;-69
2022/04/19 10:13:18;;;;;;;21.10;9.70;;;11.20;58.20;;;;;;4329499;28;658785;-69
2022/04/19 10:16:07;;;;;;;16.07;9.53;;;10.80;56.70;;;;;;4348811;28;658762;-69
2022/04/19 10:18:55;;;;;;;14.97;9.77;;;10.80;62.90;;;;;;4355095;28;658690;-69
2022/04/19 10:21:42;;;;;;;16.17;9.60;;;10.70;69.80;;;;;;4336317;28;659519;-69
2022/04/19 10:24:31;;;;;;;15.83;9.17;;;10.60;66.80;;;;;;4360164;28;658364;-69
2022/04/19 10:27:18;;;;;;;14.20;9.63;;;9.90;70.40;;;;;;4324585;28;660000;-69
2022/04/19 10:30:09;;;;;;;15.87;9.73;;;9.80;72.00;;;;;;4339137;28;657500;-68
2022/04/19 10:32:56;;;;;;;13.90;9.33;;;9.50;71.90;;;;;;4341633;28;657677;-69
2022/04/19 10:36:14;;;;;;;17.90;9.37;;;9.50;69.10;;;;;;4356669;28;657558;-69
2022/04/19 10:39:20;;;;;;;15.43;8.73;;;10.10;64.20;;;;;;4316855;28;658430;-69
2022/04/19 10:42:11;;;;;;;16.93;9.37;;;10.40;59.80;;;;;;4312234;28;659117;-69
2022/04/19 10:44:59;;;;;;;16.23;9.90;;;9.70;67.30;;;;;;4337225;28;660234;-68
2022/04/19 10:48:07;;;;;;;20.13;10.40;;;9.20;73.60;;;;;;4342412;28;657627;-68
2022/04/19 10:50:55;;;;;;;13.83;9.20;;;9.00;74.50;;;;;;4336943;28;659410;-69
2022/04/19 10:53:43;;;;;;;11.70;7.87;;;9.10;76.60;;;;;;4336879;28;659142;-68
2022/04/19 10:56:30;;;;;;;11.63;7.53;;;9.30;75.20;;;;;;4352648;28;658247;-68
2022/04/19 10:59:25;;;;;;;12.60;8.20;;;9.10;76.60;;;;;;4358420;28;658569;-68
2022/04/19 11:02:36;;;;;;;11.97;8.00;;;9.20;79.60;;;;;;4313359;28;658267;-69
2022/04/19 11:05:42;;;;;;;13.60;7.93;;;10.30;74.80;;;;;;4334884;28;658149;-69
2022/04/19 11:08:35;;;;;;;13.07;8.40;;;10.80;66.60;;;;;;4336151;28;659752;-69
2022/04/19 11:11:22;;;;;;;16.93;7.93;;;10.30;66.80;;;;;;4310384;28;659837;-68
2022/04/19 11:14:42;;;;;;;12.20;7.83;;;10.30;70.40;;;;;;4353998;28;658586;-69
2022/04/19 11:17:29;;;;;;;13.43;7.90;;;10.70;64.40;;;;;;4261505;29;658911;-69
2022/04/19 11:20:17;;;;;;;12.93;7.60;;;10.60;69.00;;;;;;4270726;29;659445;-68
2022/04/19 11:23:17;;;;;;;10.37;6.57;;;10.10;64.20;;;;;;4292939;29;658249;-68
2022/04/19 11:26:08;;;;;;;12.03;7.60;;;9.80;65.00;;;;;;4289446;29;658701;-69
2022/04/19 11:29:18;;;;;;;12.70;7.47;;;10.00;68.80;;;;;;4274482;29;657845;-69
2022/04/19 11:32:10;;;;;;;11.67;6.70;;;10.60;66.70;;;;;;4261270;29;658994;-68
2022/04/19 11:34:58;;;;;;;10.67;6.30;;;10.90;62.90;;;;;;4267828;29;660628;-68
2022/04/19 11:37:45;;;;;;;8.68;5.82;;;11.50;60.90;;;;;;4276019;29;658558;-69
2022/04/19 11:46:47;;;;;;;8.20;5.33;;;11.90;56.30;;;;;;4266916;29;657696;-69
2022/04/19 11:49:38;;;;;;;7.03;5.00;;;12.30;58.80;;;;;;4286103;29;657500;-69
2022/04/19 11:52:26;;;;;;;9.07;5.40;;;13.00;57.50;;;;;;4280662;29;657515;-69
2022/04/19 11:55:16;;;;;;;9.97;5.10;;;12.00;56.60;;;;;;4338330;28;658186;-69
2022/04/19 11:58:04;;;;;;;9.33;5.63;;;11.30;56.70;;;;;;4337639;28;657862;-69
2022/04/19 12:00:58;;;;;;;8.13;5.70;;;12.00;59.10;;;;;;4342147;28;657617;-69
2022/04/19 12:03:46;;;;;;;8.73;5.70;;;13.60;60.80;;;;;;4310274;28;657725;-69
2022/04/19 12:06:34;;;;;;;11.27;5.60;;;13.60;53.20;;;;;;4363317;28;658344;-69
2022/04/19 12:09:22;;;;;;;9.03;5.77;;;13.50;51.60;;;;;;4339688;28;659157;-69
2022/04/19 12:12:10;;;;;;;9.57;5.67;;;12.70;50.10;;;;;;4356390;28;657532;-69
2022/04/19 12:14:57;;;;;;;11.07;7.00;;;12.50;53.50;;;;;;4333529;28;658431;-70
2022/04/19 12:17:45;;;;;;;13.17;7.37;;;12.50;54.70;;;;;;4358169;28;658460;-69
2022/04/19 12:20:43;;;;;;;13.43;7.97;;;12.40;56.50;;;;;;4350193;28;659186;-69
2022/04/19 12:23:32;;;;;;;14.03;7.80;;;11.70;55.10;;;;;;4325391;28;659160;-69
2022/04/19 12:26:22;;;;;;;11.40;7.33;;;11.40;55.30;;;;;;4359160;28;658587;-69
2022/04/19 12:29:14;;;;;;;16.07;8.03;;;11.10;52.80;;;;;;4357262;28;659186;-69
2022/04/19 12:32:02;;;;;;;12.80;7.67;;;11.90;55.60;;;;;;4338275;28;658591;-69
2022/04/19 12:34:50;;;;;;;10.27;6.93;;;12.50;53.10;;;;;;4353107;28;659013;-69
2022/04/19 12:37:38;;;;;;;14.63;7.60;;;12.60;50.40;;;;;;4349104;28;660064;-69
2022/04/19 12:40:28;;;;;;;11.93;7.70;;;12.60;53.60;;;;;;4339364;28;658762;-69
2022/04/19 12:43:18;;;;;;;11.50;7.30;;;12.10;52.20;;;;;;4339589;28;658592;-68
2022/04/19 12:46:05;;;;;;;10.80;7.10;;;11.60;53.20;;;;;;4338290;28;658294;-69
2022/04/19 12:48:53;;;;;;;11.37;7.30;;;11.20;52.40;;;;;;4358332;28;660212;-69
2022/04/19 12:51:41;;;;;;;15.07;8.57;;;10.80;51.60;;;;;;4339039;28;658681;-69
2022/04/19 12:54:29;;;;;;;14.13;7.73;;;10.90;52.20;;;;;;4353995;28;659249;-68
2022/04/19 12:57:23;;;;;;;12.30;8.30;;;11.70;51.90;;;;;;4338601;28;658570;-68
2022/04/19 13:00:12;;;;;;;13.57;8.40;;;10.60;54.20;;;;;;4315572;28;658966;-68
2022/04/19 13:02:59;;;;;;;12.83;7.50;;;10.70;56.80;;;;;;4358594;28;659424;-69
2022/04/19 13:15:04;;;;;;;10.67;7.33;;;10.20;57.10;;;;;;4312414;28;658711;-69
2022/04/19 13:17:52;;;;;;;10.53;7.13;;;10.40;59.10;;;;;;4334963;28;658515;-68
2022/04/19 13:20:39;;;;;;;10.57;7.10;;;10.50;58.60;;;;;;4357376;28;658810;-68
2022/04/19 13:23:26;;;;;;;11.53;7.80;;;10.40;58.70;;;;;;4339161;28;659163;-68
2022/04/19 13:26:14;;;;;;;12.37;8.07;;;10.10;59.20;;;;;;4358782;28;659705;-68
2022/04/19 13:29:01;;;;;;;12.80;8.10;;;10.00;58.30;;;;;;4334758;28;660008;-69
2022/04/19 13:31:50;;;;;;;13.43;8.47;;;10.10;59.20;;;;;;4355379;28;659395;-68
2022/04/19 13:34:38;;;;;;;10.70;7.77;;;10.30;58.20;;;;;;4333810;28;659844;-69
2022/04/19 13:40:32;;;;;;;10.10;6.77;;;10.50;58.90;;;;;;4335532;28;660172;-68
2022/04/19 13:43:22;;;;;;;12.03;7.60;;;10.70;60.80;;;;;;4356575;28;659115;-69
2022/04/19 13:46:10;;;;;;;17.00;7.60;;;10.60;58.90;;;;;;4332625;28;659024;-69
2022/04/19 13:48:59;;;;;;;9.93;6.37;;;11.90;57.30;;;;;;4331303;28;660542;-69
2022/04/19 13:51:47;;;;;;;10.03;7.03;;;12.60;52.30;;;;;;4338434;28;657807;-69
2022/04/19 13:54:34;;;;;;;11.47;6.97;;;11.90;51.70;;;;;;4356489;28;659587;-69
2022/04/19 13:57:22;;;;;;;11.77;6.97;;;11.30;51.50;;;;;;4338033;28;658651;-68
2022/04/19 14:00:11;;;;;;;13.43;6.97;;;11.10;54.70;;;;;;4351317;28;658432;-68
2022/04/19 14:02:58;;;;;;;11.17;7.60;;;11.40;56.30;;;;;;4334993;28;659048;-68
2022/04/19 14:05:47;;;;;;;11.30;7.07;;;11.50;55.20;;;;;;4337005;28;658517;-68
2022/04/19 14:08:35;;;;;;;14.37;7.77;;;12.20;54.50;;;;;;4355702;28;659198;-68
2022/04/19 14:11:23;;;;;;;11.07;7.20;;;11.40;53.70;;;;;;4333140;28;660232;-69
2022/04/19 14:14:10;;;;;;;10.93;7.07;;;11.70;55.10;;;;;;4338143;28;659166;-68
2022/04/19 14:17:00;;;;;;;11.13;6.97;;;11.80;52.80;;;;;;4352204;28;659605;-69
2022/04/19 14:19:51;;;;;;;15.53;7.50;;;11.10;53.20;;;;;;4335946;28;658852;-68
2022/04/19 14:22:40;;;;;;;13.70;7.43;;;10.60;54.60;;;;;;4333682;28;659163;-69
2022/04/19 14:25:27;;;;;;;12.73;7.40;;;10.30;55.90;;;;;;4337114;28;659443;-69
2022/04/19 14:28:15;;;;;;;11.00;7.07;;;10.10;55.90;;;;;;4355695;28;659161;-69
2022/04/19 14:34:08;;;;;;;12.23;7.10;;;9.80;57.30;;;;;;4335589;28;658109;-69
2022/04/19 14:36:55;;;;;;;10.15;7.00;;;9.70;57.90;;;;;;4342907;28;657831;-68
2022/04/19 14:39:44;;;;;;;10.80;7.27;;;9.80;57.20;;;;;;4356106;28;658876;-69
2022/04/19 14:42:32;;;;;;;9.30;6.67;;;9.80;57.60;;;;;;4339161;28;657531;-69
2022/04/19 14:45:19;;;;;;;9.93;6.57;;;10.70;56.60;;;;;;4359246;28;657056;-69
2022/04/19 14:48:06;;;;;;;9.67;6.83;;;10.30;55.90;;;;;;4343119;28;657717;-68
2022/04/19 14:53:58;;;;;;;8.33;6.23;;;10.10;55.60;;;;;;4335234;28;659002;-68
2022/04/19 14:56:47;;;;;;;10.83;6.30;;;10.20;57.90;;;;;;4337627;28;657351;-68
2022/04/19 14:59:35;;;;;;;7.07;5.70;;;10.20;56.60;;;;;;4359711;28;658463;-69
2022/04/19 15:02:22;;;;;;;9.13;6.30;;;10.10;57.00;;;;;;4332521;28;659182;-68
2022/04/19 15:05:10;;;;;;;11.63;6.40;;;10.00;56.90;;;;;;4361131;28;658040;-69
2022/04/19 15:07:57;;;;;;;11.70;6.30;;;9.80;59.30;;;;;;4337416;28;659629;-68
2022/04/19 15:10:44;;;;;;;10.10;6.13;;;9.70;59.20;;;;;;4357333;28;657578;-68
2022/04/19 15:13:33;;;;;;;9.23;6.00;;;9.40;58.90;;;;;;4342472;28;658198;-68